Welcome to our Virtual Airline
Sign-in:

Flight MFC107101

  • Submitted By: James Smith
  • Departure Airport: Pauloff Harbor (KPH)
  • Arrival Airport: King Cove (PAVC)
  • Aircraft: CESSNA 185 (N016MM)
  • Flight Time: 00.27.18
  • Date Submitted: 22/02/18
  • Route: NO STOPS
  • Status: Accepted
Flight Details
Gross Revenue:
(3 load / $ 80.00 per unit
$ 240.00
Fuel Cost:
(16.7829 fuel used @ 5.1 / unit)
$ 85.59

Additional Log Information:

View Log

[15:09] ----- Flight Opened -----
[15:09] Cigar Box - 1.1.4.0
[15:09] FS: Prepar3D V4
[15:09] FSUIPC: v6.106
[15:09] Flight Number: MFC107101
[15:09] FS Aircraft: C185F SKYWAGON AMPHIBIAN
[15:09] FS Model: C185
[15:09] FS Type: Cessna
[15:09] Departure: KPH
[15:09] Arrival: PAVC
[15:09] Flight Level: 1500
[15:09] Flight Type: H
[15:09] Passengers: 3
[15:09] FOB: 262 lbs
[15:09] Gate: n/a
[15:09] NOTE: Parking Brake Ignored
[15:09] Crash Detection: Disabled
[15:09] Crash Detection Aircraft: Disabled
[15:09] Engines: 1 Piston
[15:09] NOTE: Boarding has started
[15:09] Parking Brake: Engaged
[15:09] Landing Gear: Retracted
[15:09] Light Data: Navigation ON
[15:09] Light Data: Beacon ON
[15:09] Main Door Closed
[15:09] COM1: 122.90
[15:09] COM2: 124.85
[15:09] Transponder: 1200
[15:09] NAV1: 110.50
[15:09] NAV2: 110.50
[15:09] ADF1: 890.0
[15:09] ADF2: 890.0
[15:09] Navigation Mode: NAV
[15:10] FS: Paused
[15:10] FS: Unpaused
[15:10] Parking Brake: Released
[15:11] Engine 1: Started
[15:11] Flaps: Position 1
[15:11] NOTE: Taxi started
[15:11] NOTE: ----- TAKE OFF -----
[15:11] GS: 66 knots
[15:11] TAS: 67 knots
[15:11] IAS: 67 knots
[15:11] VS: 15 fpm
[15:11] FOB: 261 lbs
[15:11] Heading: 348°
[15:11] Pitch: 2°
[15:11] Bank: 0°
[15:11] Aircraft Weight: 2366.10 lbs
[15:11] Nearest Airport: KPH
[15:11] Distance: 0.10 miles
[15:11] Runway: ???
[15:11] Ground Surface: Water
[15:11] Ground Condition: Snow
[15:11] NOTE: Weather Report
[15:11] Wind Heading: 348°
[15:11] Wind Speed: 0 knots
[15:11] OAT: 16° C
[15:11] TAT: 17° C
[15:11] Precipitation: None
[15:11] Dew Point: 6° C
[15:11] Visibility: 62 miles
[15:11] METAR: KPHN 181955Z AUTO 21009G15KT 10SM BKN033 M06/M14 A3007 RMK AO2 KPHX 181951Z VRB04KT 10SM FEW250 18/M08 A3020 RMK AO2 SLP219 T01781078 KPHL 181954Z 30020G29KT 10SM SCT050 BKN260 07/M09 A2992 RMK AO2 PK WND 31031/1902 SLP131 T00721089 KPHT 181955Z AUTO 33005G10KT 10SM CLR 03/M08 A3029 RMK A01 KPHF 181954Z 01009G14KT 10SM SCT070 BKN090 11/01 A2991 RMK AO2 SLP127 T01110006 KPHD 181953Z AUTO 26005KT 10SM OVC025 M04/M10 A3016 RMK AO2 SNE13 SLP224 P0000 T10441100 KPHP 181955Z AUTO 35025G36KT 10SM SCT065 OVC080 06/M02 A3000 RMK AO2 PK WND 34036/1910 SLP170 T00611022 TSNO
[15:11] NOTE: Climb started
[15:12] View Mode: Virtual Cockpit
[15:13] NOTE: TOC reached
[15:13] NOTE: Cruise started
[15:13] GS: 103 knots
[15:13] TAS: 105 knots
[15:13] IAS: 103 knots
[15:13] VS: 182 fpm
[15:13] FOB: 257 lbs
[15:13] Heading: 10°
[15:13] Pitch: 1°
[15:13] Bank: 0°
[15:13] Aircraft Weight: 2362.83 lbs
[15:13] NOTE: TOD reached
[15:13] NOTE: Descent started
[15:13] GS: 104 knots
[15:13] TAS: 107 knots
[15:13] IAS: 105 knots
[15:13] VS: -407 fpm
[15:13] FOB: 257 lbs
[15:13] Heading: 13°
[15:13] Pitch: 4°
[15:13] Bank: 0°
[15:13] Aircraft Weight: 2362.61 lbs
[15:13] NOTE: On approach
[15:13] Flaps: Position 0
[15:13] GS: 103 knots
[15:13] TAS: 107 knots
[15:13] IAS: 106 knots
[15:13] VS: -1033 fpm
[15:19] COM1: 135.75
[15:19] COM1: 122.90
[15:34] Flaps: Position 1
[15:34] GS: 87 knots
[15:34] TAS: 91 knots
[15:34] IAS: 89 knots
[15:34] VS: -1005 fpm
[15:35] Flaps: Position 2
[15:35] GS: 66 knots
[15:35] TAS: 67 knots
[15:35] IAS: 67 knots
[15:35] VS: -139 fpm
[15:35] Landing Gear: Extended
[15:35] GS: 68 knots
[15:35] TAS: 68 knots
[15:35] IAS: 67 knots
[15:35] VS: 62 fpm
[15:35] AGL: 410 ft
[15:35] AMSL: 570 ft
[15:35] Flaps: Position 3
[15:35] GS: 66 knots
[15:35] TAS: 67 knots
[15:35] IAS: 66 knots
[15:35] VS: 88 fpm
[15:36] Flaps: Position 4
[15:36] GS: 68 knots
[15:36] TAS: 68 knots
[15:36] IAS: 68 knots
[15:36] VS: -931 fpm
[15:36] NOTE: ----- LANDED -----
[15:36] Landing Rate: -224.53 fpm
[15:36] GS: 46 knots
[15:36] TAS: 47 knots
[15:36] IAS: 46 knots
[15:36] VS: -209 fpm
[15:36] FOB: 225 lbs
[15:36] Heading: 247°
[15:36] Pitch: 4°
[15:36] Bank: 0°
[15:36] Aircraft Weight: 2329.97 lbs
[15:36] Nearest Airport: KVC
[15:36] Distance: 0.20 miles
[15:36] Runway: 25 - KVC
[15:36] Ground Surface: Gravel
[15:36] Ground Condition: Snow
[15:36] NOTE: Weather Report
[15:36] Wind Heading: 346°
[15:36] Wind Speed: 0 knots
[15:36] OAT: 16° C
[15:36] TAT: 16° C
[15:36] Precipitation: None
[15:36] Dew Point: 6° C
[15:36] Visibility: 62 miles
[15:36] METAR: PAVC 181956Z AUTO 25011KT 10SM OVC060 04/M01 A2987 RMK AO2 RAE1857 SLP118 T00391006 PNO $
[15:36] View Mode: Virtual Cockpit
[15:36] Flaps: Position 3
[15:37] Flaps: Position 2
[15:37] NOTE: Taxi started
[15:38] NOTE: Arrived
[15:38] Parking Brake: Engaged
[15:38] Engine 1: Stopped
[15:39] Gate: 1 - KVC
[15:39] NOTE: Flight Completed
[15:39] FS Aircraft: C185F SKYWAGON AMPHIBIAN
[15:39] FS Model: C185
[15:39] FS Type: Cessna
[15:39] FOB: 224 lbs
[15:39] Fuel Used: 37 lbs
[15:39] Flight Time: 00:27:18
[15:39] Flight Time (Dawn): 00:00:00
[15:39] Flight Time (Day): 00:27:18
[15:39] Flight Time (Dusk): 00:00:00
[15:39] Flight Time (Night): 00:00:00
[15:39] Total Landings: 1
[15:39] MaxSim Rate: 1x
[15:39] Cigar Box - 1.1.4.0
[15:39] ----- Flight Closed -----

Route Map